sensor_id;sensor_type;location;lat;lon;timestamp;temperature;humidity
55313;DHT22;46892;45.668;11.756;2023-07-30T00:01:33;23.80;82.70
55313;DHT22;46892;45.668;11.756;2023-07-30T00:03:59;23.80;83.00
55313;DHT22;46892;45.668;11.756;2023-07-30T00:06:25;23.80;82.90
55313;DHT22;46892;45.668;11.756;2023-07-30T00:08:51;23.80;82.60
55313;DHT22;46892;45.668;11.756;2023-07-30T00:11:17;23.70;82.70
55313;DHT22;46892;45.668;11.756;2023-07-30T00:13:42;23.80;83.10
55313;DHT22;46892;45.668;11.756;2023-07-30T00:16:08;23.70;83.20
55313;DHT22;46892;45.668;11.756;2023-07-30T00:18:34;23.70;83.50
55313;DHT22;46892;45.668;11.756;2023-07-30T00:21:00;23.60;83.70
55313;DHT22;46892;45.668;11.756;2023-07-30T00:23:25;23.60;83.90
55313;DHT22;46892;45.668;11.756;2023-07-30T00:25:51;23.70;83.70
55313;DHT22;46892;45.668;11.756;2023-07-30T00:28:17;23.70;84.00
55313;DHT22;46892;45.668;11.756;2023-07-30T00:30:43;23.70;83.70
55313;DHT22;46892;45.668;11.756;2023-07-30T00:33:08;23.60;83.80
55313;DHT22;46892;45.668;11.756;2023-07-30T00:35:34;23.60;83.90
55313;DHT22;46892;45.668;11.756;2023-07-30T00:38:00;23.50;83.80
55313;DHT22;46892;45.668;11.756;2023-07-30T00:40:25;23.60;84.00
55313;DHT22;46892;45.668;11.756;2023-07-30T00:42:51;23.50;83.90
55313;DHT22;46892;45.668;11.756;2023-07-30T00:45:17;23.50;84.00
55313;DHT22;46892;45.668;11.756;2023-07-30T00:47:43;23.40;84.30
55313;DHT22;46892;45.668;11.756;2023-07-30T00:50:10;23.30;84.70
55313;DHT22;46892;45.668;11.756;2023-07-30T00:52:36;23.20;85.30
55313;DHT22;46892;45.668;11.756;2023-07-30T00:55:03;23.30;85.50
55313;DHT22;46892;45.668;11.756;2023-07-30T00:57:29;23.40;85.60
55313;DHT22;46892;45.668;11.756;2023-07-30T00:59:56;23.50;85.30
55313;DHT22;46892;45.668;11.756;2023-07-30T01:02:22;23.60;85.30
55313;DHT22;46892;45.668;11.756;2023-07-30T01:04:48;23.60;85.70
55313;DHT22;46892;45.668;11.756;2023-07-30T01:07:15;23.50;86.00
55313;DHT22;46892;45.668;11.756;2023-07-30T01:09:41;23.50;86.50
55313;DHT22;46892;45.668;11.756;2023-07-30T01:12:08;23.50;86.50
55313;DHT22;46892;45.668;11.756;2023-07-30T01:14:35;23.50;86.90
55313;DHT22;46892;45.668;11.756;2023-07-30T01:17:04;23.50;86.80
55313;DHT22;46892;45.668;11.756;2023-07-30T01:19:30;23.50;87.20
55313;DHT22;46892;45.668;11.756;2023-07-30T01:21:56;23.50;87.40
55313;DHT22;46892;45.668;11.756;2023-07-30T01:24:23;23.50;87.30
55313;DHT22;46892;45.668;11.756;2023-07-30T01:26:56;23.60;87.20
55313;DHT22;46892;45.668;11.756;2023-07-30T01:29:42;23.60;86.60
55313;DHT22;46892;45.668;11.756;2023-07-30T01:32:11;23.60;86.40
55313;DHT22;46892;45.668;11.756;2023-07-30T01:34:37;23.50;86.50
55313;DHT22;46892;45.668;11.756;2023-07-30T01:37:10;23.60;86.70
55313;DHT22;46892;45.668;11.756;2023-07-30T01:39:38;23.50;86.90
55313;DHT22;46892;45.668;11.756;2023-07-30T01:42:05;23.50;86.80
55313;DHT22;46892;45.668;11.756;2023-07-30T01:44:31;23.50;86.70
55313;DHT22;46892;45.668;11.756;2023-07-30T01:46:56;23.30;86.80
55313;DHT22;46892;45.668;11.756;2023-07-30T01:49:22;23.20;87.30
55313;DHT22;46892;45.668;11.756;2023-07-30T01:51:48;23.00;88.10
55313;DHT22;46892;45.668;11.756;2023-07-30T01:54:14;22.90;88.70
55313;DHT22;46892;45.668;11.756;2023-07-30T01:56:40;22.80;89.20
55313;DHT22;46892;45.668;11.756;2023-07-30T01:59:06;22.80;89.40
55313;DHT22;46892;45.668;11.756;2023-07-30T02:01:32;22.70;89.70
55313;DHT22;46892;45.668;11.756;2023-07-30T02:03:57;22.70;89.80
55313;DHT22;46892;45.668;11.756;2023-07-30T02:06:23;22.60;90.00
55313;DHT22;46892;45.668;11.756;2023-07-30T02:08:49;22.50;90.20
55313;DHT22;46892;45.668;11.756;2023-07-30T02:11:14;22.50;90.30
55313;DHT22;46892;45.668;11.756;2023-07-30T02:13:40;22.50;90.30
55313;DHT22;46892;45.668;11.756;2023-07-30T02:16:06;22.40;90.20
55313;DHT22;46892;45.668;11.756;2023-07-30T02:18:32;22.60;89.90
55313;DHT22;46892;45.668;11.756;2023-07-30T02:20:58;22.60;89.80
55313;DHT22;46892;45.668;11.756;2023-07-30T02:23:24;22.60;89.90
55313;DHT22;46892;45.668;11.756;2023-07-30T02:25:50;22.60;89.80
55313;DHT22;46892;45.668;11.756;2023-07-30T02:28:15;22.60;89.80
55313;DHT22;46892;45.668;11.756;2023-07-30T02:30:42;22.60;89.80
55313;DHT22;46892;45.668;11.756;2023-07-30T02:33:07;22.50;90.00
55313;DHT22;46892;45.668;11.756;2023-07-30T02:35:33;22.50;90.00
55313;DHT22;46892;45.668;11.756;2023-07-30T02:37:59;22.60;90.10
55313;DHT22;46892;45.668;11.756;2023-07-30T02:40:24;22.70;89.50
55313;DHT22;46892;45.668;11.756;2023-07-30T02:42:50;22.70;89.50
55313;DHT22;46892;45.668;11.756;2023-07-30T02:45:16;22.60;89.10
55313;DHT22;46892;45.668;11.756;2023-07-30T02:47:43;22.50;89.20
55313;DHT22;46892;45.668;11.756;2023-07-30T02:50:09;22.60;89.30
55313;DHT22;46892;45.668;11.756;2023-07-30T02:52:35;22.60;89.30
55313;DHT22;46892;45.668;11.756;2023-07-30T02:55:01;22.50;89.10
55313;DHT22;46892;45.668;11.756;2023-07-30T02:57:26;22.50;88.90
55313;DHT22;46892;45.668;11.756;2023-07-30T02:59:52;22.50;88.10
55313;DHT22;46892;45.668;11.756;2023-07-30T03:02:18;22.30;87.50
55313;DHT22;46892;45.668;11.756;2023-07-30T03:04:43;22.20;87.70
55313;DHT22;46892;45.668;11.756;2023-07-30T03:07:09;22.10;87.80
55313;DHT22;46892;45.668;11.756;2023-07-30T03:09:35;22.00;87.90
55313;DHT22;46892;45.668;11.756;2023-07-30T03:12:02;21.90;88.20
55313;DHT22;46892;45.668;11.756;2023-07-30T03:14:29;21.80;88.10
55313;DHT22;46892;45.668;11.756;2023-07-30T03:16:55;21.80;88.30
55313;DHT22;46892;45.668;11.756;2023-07-30T03:19:20;21.80;88.50
55313;DHT22;46892;45.668;11.756;2023-07-30T03:21:46;21.70;88.70
55313;DHT22;46892;45.668;11.756;2023-07-30T03:24:12;21.70;88.70
55313;DHT22;46892;45.668;11.756;2023-07-30T03:26:37;21.70;88.60
55313;DHT22;46892;45.668;11.756;2023-07-30T03:29:03;21.70;88.70
55313;DHT22;46892;45.668;11.756;2023-07-30T03:31:29;21.70;88.50
55313;DHT22;46892;45.668;11.756;2023-07-30T03:33:55;21.60;88.30
55313;DHT22;46892;45.668;11.756;2023-07-30T03:36:21;21.50;88.40
55313;DHT22;46892;45.668;11.756;2023-07-30T03:38:46;21.40;88.40
55313;DHT22;46892;45.668;11.756;2023-07-30T03:41:12;21.30;88.70
55313;DHT22;46892;45.668;11.756;2023-07-30T03:43:38;21.20;88.90
55313;DHT22;46892;45.668;11.756;2023-07-30T03:46:04;21.20;89.20
55313;DHT22;46892;45.668;11.756;2023-07-30T03:48:29;21.30;89.10
55313;DHT22;46892;45.668;11.756;2023-07-30T03:50:56;21.30;88.40
55313;DHT22;46892;45.668;11.756;2023-07-30T03:53:22;21.30;88.30
55313;DHT22;46892;45.668;11.756;2023-07-30T03:55:48;21.20;88.00
55313;DHT22;46892;45.668;11.756;2023-07-30T03:58:14;21.20;87.50
55313;DHT22;46892;45.668;11.756;2023-07-30T04:00:40;21.10;87.60
55313;DHT22;46892;45.668;11.756;2023-07-30T04:03:06;21.10;87.30
55313;DHT22;46892;45.668;11.756;2023-07-30T04:05:32;21.00;87.10
55313;DHT22;46892;45.668;11.756;2023-07-30T04:07:58;21.00;87.00
55313;DHT22;46892;45.668;11.756;2023-07-30T04:10:23;21.00;87.10
55313;DHT22;46892;45.668;11.756;2023-07-30T04:12:49;21.10;87.20
55313;DHT22;46892;45.668;11.756;2023-07-30T04:15:15;21.10;87.10
55313;DHT22;46892;45.668;11.756;2023-07-30T04:17:41;21.10;87.30
55313;DHT22;46892;45.668;11.756;2023-07-30T04:20:08;21.20;87.20
55313;DHT22;46892;45.668;11.756;2023-07-30T04:22:37;21.40;87.40
55313;DHT22;46892;45.668;11.756;2023-07-30T04:25:03;21.50;87.20
55313;DHT22;46892;45.668;11.756;2023-07-30T04:27:29;21.40;87.30
55313;DHT22;46892;45.668;11.756;2023-07-30T04:29:55;21.50;87.50
55313;DHT22;46892;45.668;11.756;2023-07-30T04:32:21;21.50;86.80
55313;DHT22;46892;45.668;11.756;2023-07-30T04:34:46;21.50;86.90
55313;DHT22;46892;45.668;11.756;2023-07-30T04:37:12;21.50;86.80
55313;DHT22;46892;45.668;11.756;2023-07-30T04:39:38;21.60;86.90
55313;DHT22;46892;45.668;11.756;2023-07-30T04:42:04;21.50;87.00
55313;DHT22;46892;45.668;11.756;2023-07-30T04:44:30;21.60;86.90
55313;DHT22;46892;45.668;11.756;2023-07-30T04:46:56;21.60;86.90
55313;DHT22;46892;45.668;11.756;2023-07-30T04:49:21;21.70;86.80
55313;DHT22;46892;45.668;11.756;2023-07-30T04:51:47;21.70;86.50
55313;DHT22;46892;45.668;11.756;2023-07-30T04:54:13;21.70;86.60
55313;DHT22;46892;45.668;11.756;2023-07-30T04:56:38;21.70;86.50
55313;DHT22;46892;45.668;11.756;2023-07-30T04:59:04;21.80;86.50
55313;DHT22;46892;45.668;11.756;2023-07-30T05:01:30;21.80;86.30
55313;DHT22;46892;45.668;11.756;2023-07-30T05:03:56;21.80;86.20
55313;DHT22;46892;45.668;11.756;2023-07-30T05:06:23;21.80;86.10
55313;DHT22;46892;45.668;11.756;2023-07-30T05:08:49;21.80;86.10
55313;DHT22;46892;45.668;11.756;2023-07-30T05:11:14;21.80;86.30
55313;DHT22;46892;45.668;11.756;2023-07-30T05:13:40;22.00;86.30
55313;DHT22;46892;45.668;11.756;2023-07-30T05:16:06;22.30;85.50
55313;DHT22;46892;45.668;11.756;2023-07-30T05:18:32;22.50;85.00
55313;DHT22;46892;45.668;11.756;2023-07-30T05:20:57;22.60;84.70
55313;DHT22;46892;45.668;11.756;2023-07-30T05:23:23;22.70;84.80
55313;DHT22;46892;45.668;11.756;2023-07-30T05:25:49;22.70;84.90
55313;DHT22;46892;45.668;11.756;2023-07-30T05:28:15;22.70;84.30
55313;DHT22;46892;45.668;11.756;2023-07-30T05:30:40;22.60;84.20
55313;DHT22;46892;45.668;11.756;2023-07-30T05:33:06;22.60;84.20
55313;DHT22;46892;45.668;11.756;2023-07-30T05:35:32;22.90;85.90
55313;DHT22;46892;45.668;11.756;2023-07-30T05:37:58;23.30;85.30
55313;DHT22;46892;45.668;11.756;2023-07-30T05:40:24;23.60;81.70
55313;DHT22;46892;45.668;11.756;2023-07-30T05:42:49;23.80;81.00
55313;DHT22;46892;45.668;11.756;2023-07-30T05:45:15;24.10;80.70
55313;DHT22;46892;45.668;11.756;2023-07-30T05:47:41;24.40;79.50
55313;DHT22;46892;45.668;11.756;2023-07-30T05:50:07;24.70;79.10
55313;DHT22;46892;45.668;11.756;2023-07-30T05:52:34;25.00;78.70
55313;DHT22;46892;45.668;11.756;2023-07-30T05:55:00;25.20;78.10
55313;DHT22;46892;45.668;11.756;2023-07-30T05:57:26;25.30;76.80
55313;DHT22;46892;45.668;11.756;2023-07-30T05:59:52;25.30;76.70
55313;DHT22;46892;45.668;11.756;2023-07-30T06:02:18;25.20;76.70
55313;DHT22;46892;45.668;11.756;2023-07-30T06:04:44;25.00;77.80
55313;DHT22;46892;45.668;11.756;2023-07-30T06:07:10;24.90;80.40
55313;DHT22;46892;45.668;11.756;2023-07-30T06:09:36;25.00;78.70
55313;DHT22;46892;45.668;11.756;2023-07-30T06:12:02;25.20;77.10
55313;DHT22;46892;45.668;11.756;2023-07-30T06:14:27;25.50;76.40
55313;DHT22;46892;45.668;11.756;2023-07-30T06:16:53;25.80;74.30
55313;DHT22;46892;45.668;11.756;2023-07-30T06:19:19;25.90;74.40
55313;DHT22;46892;45.668;11.756;2023-07-30T06:21:45;26.20;74.00
55313;DHT22;46892;45.668;11.756;2023-07-30T06:24:12;26.20;72.00
55313;DHT22;46892;45.668;11.756;2023-07-30T06:26:37;26.50;72.80
55313;DHT22;46892;45.668;11.756;2023-07-30T06:29:03;26.40;71.30
55313;DHT22;46892;45.668;11.756;2023-07-30T06:31:29;26.50;72.50
55313;DHT22;46892;45.668;11.756;2023-07-30T06:33:55;26.40;71.10
55313;DHT22;46892;45.668;11.756;2023-07-30T06:36:21;26.60;71.10
55313;DHT22;46892;45.668;11.756;2023-07-30T06:38:47;26.70;71.60
55313;DHT22;46892;45.668;11.756;2023-07-30T06:41:13;26.90;70.30
55313;DHT22;46892;45.668;11.756;2023-07-30T06:43:39;27.10;69.60
55313;DHT22;46892;45.668;11.756;2023-07-30T06:46:05;27.20;67.00
55313;DHT22;46892;45.668;11.756;2023-07-30T06:48:30;27.10;66.50
55313;DHT22;46892;45.668;11.756;2023-07-30T06:50:57;27.10;68.10
55313;DHT22;46892;45.668;11.756;2023-07-30T06:53:23;27.10;66.90
55313;DHT22;46892;45.668;11.756;2023-07-30T06:55:48;27.20;67.20
55313;DHT22;46892;45.668;11.756;2023-07-30T06:58:14;27.20;65.80
55313;DHT22;46892;45.668;11.756;2023-07-30T07:00:40;27.10;63.60
55313;DHT22;46892;45.668;11.756;2023-07-30T07:03:06;27.00;64.90
55313;DHT22;46892;45.668;11.756;2023-07-30T07:05:32;27.10;65.40
55313;DHT22;46892;45.668;11.756;2023-07-30T07:07:57;27.20;63.80
55313;DHT22;46892;45.668;11.756;2023-07-30T07:10:23;27.30;64.50
55313;DHT22;46892;45.668;11.756;2023-07-30T07:12:49;27.20;63.20
55313;DHT22;46892;45.668;11.756;2023-07-30T07:15:15;27.20;65.70
55313;DHT22;46892;45.668;11.756;2023-07-30T07:17:41;27.20;64.90
55313;DHT22;46892;45.668;11.756;2023-07-30T07:20:07;27.40;64.10
55313;DHT22;46892;45.668;11.756;2023-07-30T07:22:33;27.50;63.80
55313;DHT22;46892;45.668;11.756;2023-07-30T07:24:59;27.60;64.60
55313;DHT22;46892;45.668;11.756;2023-07-30T07:27:25;27.60;62.40
55313;DHT22;46892;45.668;11.756;2023-07-30T07:29:52;27.50;62.20
55313;DHT22;46892;45.668;11.756;2023-07-30T07:32:18;27.30;62.70
55313;DHT22;46892;45.668;11.756;2023-07-30T07:34:48;27.20;65.50
55313;DHT22;46892;45.668;11.756;2023-07-30T07:37:15;27.10;64.00
55313;DHT22;46892;45.668;11.756;2023-07-30T07:39:42;27.00;64.50
55313;DHT22;46892;45.668;11.756;2023-07-30T07:42:09;27.20;64.70
55313;DHT22;46892;45.668;11.756;2023-07-30T07:44:34;27.10;65.20
55313;DHT22;46892;45.668;11.756;2023-07-30T07:47:00;27.10;65.40
55313;DHT22;46892;45.668;11.756;2023-07-30T07:49:26;27.20;66.70
55313;DHT22;46892;45.668;11.756;2023-07-30T07:51:52;27.20;64.80
55313;DHT22;46892;45.668;11.756;2023-07-30T07:54:17;27.40;64.50
55313;DHT22;46892;45.668;11.756;2023-07-30T07:56:43;27.50;66.30
55313;DHT22;46892;45.668;11.756;2023-07-30T07:59:09;27.60;63.50
55313;DHT22;46892;45.668;11.756;2023-07-30T08:01:35;27.50;63.10
55313;DHT22;46892;45.668;11.756;2023-07-30T08:04:02;27.70;65.30
55313;DHT22;46892;45.668;11.756;2023-07-30T08:06:27;27.70;63.60
55313;DHT22;46892;45.668;11.756;2023-07-30T08:08:53;27.80;63.70
55313;DHT22;46892;45.668;11.756;2023-07-30T08:11:19;27.70;62.80
55313;DHT22;46892;45.668;11.756;2023-07-30T08:13:45;27.60;62.10
55313;DHT22;46892;45.668;11.756;2023-07-30T08:16:11;27.40;64.20
55313;DHT22;46892;45.668;11.756;2023-07-30T08:18:37;27.20;65.60
55313;DHT22;46892;45.668;11.756;2023-07-30T08:21:03;27.20;65.40
55313;DHT22;46892;45.668;11.756;2023-07-30T08:23:29;27.30;65.50
55313;DHT22;46892;45.668;11.756;2023-07-30T08:25:55;27.30;63.40
55313;DHT22;46892;45.668;11.756;2023-07-30T08:28:20;27.50;65.00
55313;DHT22;46892;45.668;11.756;2023-07-30T08:30:46;27.70;65.90
55313;DHT22;46892;45.668;11.756;2023-07-30T08:33:12;27.80;65.30
55313;DHT22;46892;45.668;11.756;2023-07-30T08:35:38;27.80;65.20
55313;DHT22;46892;45.668;11.756;2023-07-30T08:38:04;27.80;65.80
55313;DHT22;46892;45.668;11.756;2023-07-30T08:40:30;27.80;65.70
55313;DHT22;46892;45.668;11.756;2023-07-30T08:42:57;28.00;62.40
55313;DHT22;46892;45.668;11.756;2023-07-30T08:45:23;28.10;66.70
55313;DHT22;46892;45.668;11.756;2023-07-30T08:47:48;28.20;66.80
55313;DHT22;46892;45.668;11.756;2023-07-30T08:50:14;28.30;66.60
55313;DHT22;46892;45.668;11.756;2023-07-30T08:52:41;28.20;60.20
55313;DHT22;46892;45.668;11.756;2023-07-30T08:55:08;28.30;63.30
55313;DHT22;46892;45.668;11.756;2023-07-30T08:57:34;28.20;63.00
55313;DHT22;46892;45.668;11.756;2023-07-30T09:00:05;28.20;61.70
55313;DHT22;46892;45.668;11.756;2023-07-30T09:02:55;28.00;63.50
55313;DHT22;46892;45.668;11.756;2023-07-30T09:05:21;28.00;61.10
55313;DHT22;46892;45.668;11.756;2023-07-30T09:07:48;28.00;62.20
55313;DHT22;46892;45.668;11.756;2023-07-30T09:10:14;27.90;61.60
55313;DHT22;46892;45.668;11.756;2023-07-30T09:12:41;27.80;61.30
55313;DHT22;46892;45.668;11.756;2023-07-30T09:15:07;27.70;61.80
55313;DHT22;46892;45.668;11.756;2023-07-30T09:17:37;27.60;62.20
55313;DHT22;46892;45.668;11.756;2023-07-30T09:20:03;27.60;62.00
55313;DHT22;46892;45.668;11.756;2023-07-30T09:22:32;27.60;64.60
55313;DHT22;46892;45.668;11.756;2023-07-30T09:25:07;27.60;63.10
55313;DHT22;46892;45.668;11.756;2023-07-30T09:27:33;27.70;63.30
55313;DHT22;46892;45.668;11.756;2023-07-30T09:30:01;27.70;62.70
55313;DHT22;46892;45.668;11.756;2023-07-30T09:32:28;27.80;63.40
55313;DHT22;46892;45.668;11.756;2023-07-30T09:34:55;27.90;65.40
55313;DHT22;46892;45.668;11.756;2023-07-30T09:37:21;28.00;63.90
55313;DHT22;46892;45.668;11.756;2023-07-30T09:39:48;28.00;64.10
55313;DHT22;46892;45.668;11.756;2023-07-30T09:42:14;28.00;63.00
55313;DHT22;46892;45.668;11.756;2023-07-30T09:44:40;28.00;63.80
55313;DHT22;46892;45.668;11.756;2023-07-30T09:47:10;28.00;62.40
55313;DHT22;46892;45.668;11.756;2023-07-30T09:49:37;27.90;59.90
55313;DHT22;46892;45.668;11.756;2023-07-30T09:52:04;27.80;61.30
55313;DHT22;46892;45.668;11.756;2023-07-30T09:54:31;27.90;62.00
55313;DHT22;46892;45.668;11.756;2023-07-30T09:56:58;27.80;59.30
55313;DHT22;46892;45.668;11.756;2023-07-30T09:59:24;27.60;60.60
55313;DHT22;46892;45.668;11.756;2023-07-30T10:01:50;27.60;62.20
55313;DHT22;46892;45.668;11.756;2023-07-30T10:04:22;27.60;61.40
55313;DHT22;46892;45.668;11.756;2023-07-30T10:07:04;27.60;64.80
55313;DHT22;46892;45.668;11.756;2023-07-30T10:09:38;27.60;61.40
55313;DHT22;46892;45.668;11.756;2023-07-30T10:12:11;27.60;60.20
55313;DHT22;46892;45.668;11.756;2023-07-30T10:14:38;27.50;61.80
55313;DHT22;46892;45.668;11.756;2023-07-30T10:17:04;27.70;63.90
55313;DHT22;46892;45.668;11.756;2023-07-30T10:19:30;27.80;62.20
55313;DHT22;46892;45.668;11.756;2023-07-30T10:24:38;27.80;61.80
55313;DHT22;46892;45.668;11.756;2023-07-30T10:27:08;27.70;60.70
55313;DHT22;46892;45.668;11.756;2023-07-30T10:29:36;27.80;60.60
55313;DHT22;46892;45.668;11.756;2023-07-30T10:32:04;27.90;63.70
55313;DHT22;46892;45.668;11.756;2023-07-30T10:34:46;28.00;64.30
55313;DHT22;46892;45.668;11.756;2023-07-30T10:37:18;28.10;66.30
55313;DHT22;46892;45.668;11.756;2023-07-30T10:39:44;28.20;63.30
55313;DHT22;46892;45.668;11.756;2023-07-30T10:42:13;28.30;66.00
55313;DHT22;46892;45.668;11.756;2023-07-30T10:44:43;28.40;62.10
55313;DHT22;46892;45.668;11.756;2023-07-30T10:47:09;28.30;60.10
55313;DHT22;46892;45.668;11.756;2023-07-30T10:49:39;28.20;62.40
55313;DHT22;46892;45.668;11.756;2023-07-30T10:52:06;28.30;63.30
55313;DHT22;46892;45.668;11.756;2023-07-30T10:54:36;28.20;61.70
55313;DHT22;46892;45.668;11.756;2023-07-30T10:57:03;28.20;61.50
55313;DHT22;46892;45.668;11.756;2023-07-30T10:59:36;28.20;63.50
55313;DHT22;46892;45.668;11.756;2023-07-30T11:02:03;28.30;60.70
55313;DHT22;46892;45.668;11.756;2023-07-30T11:04:29;28.30;60.90
55313;DHT22;46892;45.668;11.756;2023-07-30T11:06:54;28.40;64.70
55313;DHT22;46892;45.668;11.756;2023-07-30T11:09:24;28.50;65.80
55313;DHT22;46892;45.668;11.756;2023-07-30T11:11:51;28.70;63.60
55313;DHT22;46892;45.668;11.756;2023-07-30T11:14:22;28.70;66.20
55313;DHT22;46892;45.668;11.756;2023-07-30T11:16:50;28.80;64.80
55313;DHT22;46892;45.668;11.756;2023-07-30T11:19:17;28.90;64.10
55313;DHT22;46892;45.668;11.756;2023-07-30T11:21:50;29.00;64.30
55313;DHT22;46892;45.668;11.756;2023-07-30T11:24:16;29.00;63.50
55313;DHT22;46892;45.668;11.756;2023-07-30T11:26:43;29.00;61.70
55313;DHT22;46892;45.668;11.756;2023-07-30T11:29:19;29.10;63.80
55313;DHT22;46892;45.668;11.756;2023-07-30T11:31:46;29.10;64.00
55313;DHT22;46892;45.668;11.756;2023-07-30T11:34:13;29.20;60.90
55313;DHT22;46892;45.668;11.756;2023-07-30T11:36:42;29.20;61.70
55313;DHT22;46892;45.668;11.756;2023-07-30T11:39:09;29.20;60.20
55313;DHT22;46892;45.668;11.756;2023-07-30T11:41:35;29.10;61.00
55313;DHT22;46892;45.668;11.756;2023-07-30T11:44:02;28.90;59.70
55313;DHT22;46892;45.668;11.756;2023-07-30T11:46:29;28.70;59.90
55313;DHT22;46892;45.668;11.756;2023-07-30T11:49:12;28.70;62.40
55313;DHT22;46892;45.668;11.756;2023-07-30T11:51:39;28.70;64.30
55313;DHT22;46892;45.668;11.756;2023-07-30T11:54:05;28.80;64.50
55313;DHT22;46892;45.668;11.756;2023-07-30T11:56:34;28.70;60.90
55313;DHT22;46892;45.668;11.756;2023-07-30T11:59:01;28.40;62.10
55313;DHT22;46892;45.668;11.756;2023-07-30T12:01:30;28.40;63.90
55313;DHT22;46892;45.668;11.756;2023-07-30T12:04:00;28.20;65.40
55313;DHT22;46892;45.668;11.756;2023-07-30T12:09:20;28.30;65.30
55313;DHT22;46892;45.668;11.756;2023-07-30T12:11:58;28.30;65.70
55313;DHT22;46892;45.668;11.756;2023-07-30T12:14:26;28.50;64.70
55313;DHT22;46892;45.668;11.756;2023-07-30T12:16:56;28.60;64.10
55313;DHT22;46892;45.668;11.756;2023-07-30T12:19:22;28.70;65.10
55313;DHT22;46892;45.668;11.756;2023-07-30T12:21:48;28.80;64.70
55313;DHT22;46892;45.668;11.756;2023-07-30T12:24:13;28.90;63.40
55313;DHT22;46892;45.668;11.756;2023-07-30T12:26:39;28.80;60.30
55313;DHT22;46892;45.668;11.756;2023-07-30T12:29:05;28.80;63.40
55313;DHT22;46892;45.668;11.756;2023-07-30T12:31:31;28.80;61.40
55313;DHT22;46892;45.668;11.756;2023-07-30T12:33:56;28.80;61.60
55313;DHT22;46892;45.668;11.756;2023-07-30T12:36:22;28.80;62.00
55313;DHT22;46892;45.668;11.756;2023-07-30T12:38:48;28.90;65.10
55313;DHT22;46892;45.668;11.756;2023-07-30T12:41:13;29.00;63.40
55313;DHT22;46892;45.668;11.756;2023-07-30T12:43:39;29.10;62.40
55313;DHT22;46892;45.668;11.756;2023-07-30T12:46:05;29.00;61.50
55313;DHT22;46892;45.668;11.756;2023-07-30T12:48:31;29.00;62.10
55313;DHT22;46892;45.668;11.756;2023-07-30T12:50:56;28.90;63.60
55313;DHT22;46892;45.668;11.756;2023-07-30T12:53:22;28.80;62.40
55313;DHT22;46892;45.668;11.756;2023-07-30T12:55:48;28.80;61.30
55313;DHT22;46892;45.668;11.756;2023-07-30T12:58:14;28.70;61.20
55313;DHT22;46892;45.668;11.756;2023-07-30T13:00:40;28.60;62.30
55313;DHT22;46892;45.668;11.756;2023-07-30T13:03:05;28.50;61.40
55313;DHT22;46892;45.668;11.756;2023-07-30T13:05:31;28.50;63.20
55313;DHT22;46892;45.668;11.756;2023-07-30T13:07:57;28.60;63.20
55313;DHT22;46892;45.668;11.756;2023-07-30T13:10:22;28.80;64.20
55313;DHT22;46892;45.668;11.756;2023-07-30T13:12:48;28.90;64.00
55313;DHT22;46892;45.668;11.756;2023-07-30T13:15:14;29.10;65.20
55313;DHT22;46892;45.668;11.756;2023-07-30T13:17:40;29.20;62.90
55313;DHT22;46892;45.668;11.756;2023-07-30T13:20:06;29.30;63.50
55313;DHT22;46892;45.668;11.756;2023-07-30T13:22:32;29.40;60.50
55313;DHT22;46892;45.668;11.756;2023-07-30T13:24:58;29.40;61.50
55313;DHT22;46892;45.668;11.756;2023-07-30T13:27:24;29.30;62.30
55313;DHT22;46892;45.668;11.756;2023-07-30T13:29:49;29.30;63.80
55313;DHT22;46892;45.668;11.756;2023-07-30T13:32:15;29.30;61.70
55313;DHT22;46892;45.668;11.756;2023-07-30T13:34:41;29.30;61.20
55313;DHT22;46892;45.668;11.756;2023-07-30T13:37:07;29.20;62.90
55313;DHT22;46892;45.668;11.756;2023-07-30T13:39:33;29.20;63.30
55313;DHT22;46892;45.668;11.756;2023-07-30T13:41:59;29.20;62.70
55313;DHT22;46892;45.668;11.756;2023-07-30T13:44:24;29.30;60.70
55313;DHT22;46892;45.668;11.756;2023-07-30T13:46:50;29.20;60.00
55313;DHT22;46892;45.668;11.756;2023-07-30T13:49:16;29.20;62.40
55313;DHT22;46892;45.668;11.756;2023-07-30T13:51:42;29.20;61.00
55313;DHT22;46892;45.668;11.756;2023-07-30T13:54:08;29.20;62.90
55313;DHT22;46892;45.668;11.756;2023-07-30T13:56:34;29.20;62.20
55313;DHT22;46892;45.668;11.756;2023-07-30T13:59:00;29.30;62.20
55313;DHT22;46892;45.668;11.756;2023-07-30T14:01:25;29.30;62.50
55313;DHT22;46892;45.668;11.756;2023-07-30T14:03:51;29.30;61.60
55313;DHT22;46892;45.668;11.756;2023-07-30T14:06:17;29.40;63.10
55313;DHT22;46892;45.668;11.756;2023-07-30T14:08:43;29.50;61.50
55313;DHT22;46892;45.668;11.756;2023-07-30T14:11:09;29.50;59.20
55313;DHT22;46892;45.668;11.756;2023-07-30T14:13:34;29.60;58.30
55313;DHT22;46892;45.668;11.756;2023-07-30T14:16:00;29.60;60.20
55313;DHT22;46892;45.668;11.756;2023-07-30T14:18:26;29.60;59.40
55313;DHT22;46892;45.668;11.756;2023-07-30T14:20:52;29.60;59.80
55313;DHT22;46892;45.668;11.756;2023-07-30T14:23:18;29.50;56.60
55313;DHT22;46892;45.668;11.756;2023-07-30T14:25:44;29.30;59.60
55313;DHT22;46892;45.668;11.756;2023-07-30T14:28:09;29.40;60.40
55313;DHT22;46892;45.668;11.756;2023-07-30T14:30:35;29.30;60.60
55313;DHT22;46892;45.668;11.756;2023-07-30T14:35:39;29.40;61.60
55313;DHT22;46892;45.668;11.756;2023-07-30T14:38:05;29.40;60.90
55313;DHT22;46892;45.668;11.756;2023-07-30T14:40:32;29.40;60.20
55313;DHT22;46892;45.668;11.756;2023-07-30T14:42:57;29.40;60.80
55313;DHT22;46892;45.668;11.756;2023-07-30T14:45:24;29.50;61.30
55313;DHT22;46892;45.668;11.756;2023-07-30T14:47:49;29.50;61.20
55313;DHT22;46892;45.668;11.756;2023-07-30T14:50:15;29.50;58.20
55313;DHT22;46892;45.668;11.756;2023-07-30T14:52:41;29.50;58.50
55313;DHT22;46892;45.668;11.756;2023-07-30T14:55:07;29.50;60.80
55313;DHT22;46892;45.668;11.756;2023-07-30T14:57:32;29.60;60.90
55313;DHT22;46892;45.668;11.756;2023-07-30T14:59:59;29.60;61.00
55313;DHT22;46892;45.668;11.756;2023-07-30T15:02:26;29.70;59.20
55313;DHT22;46892;45.668;11.756;2023-07-30T15:04:53;29.60;61.90
55313;DHT22;46892;45.668;11.756;2023-07-30T15:07:19;29.50;61.60
55313;DHT22;46892;45.668;11.756;2023-07-30T15:09:45;29.50;63.50
55313;DHT22;46892;45.668;11.756;2023-07-30T15:12:12;29.30;61.50
55313;DHT22;46892;45.668;11.756;2023-07-30T15:14:38;29.00;60.70
55313;DHT22;46892;45.668;11.756;2023-07-30T15:17:04;29.00;61.20
55313;DHT22;46892;45.668;11.756;2023-07-30T15:19:31;29.00;60.20